HESC

St Catherine International Airport

Egypt
METAR HESC 251700Z 26008KT CAVOK 29/20 Q1021 NOSIG
Observed Flight Rules
Sep-25 @ 17:00 UTC (3 hours ago) Visual Flight Rules
Wind Visibility Clouds
260° at 8 knots 10,000+ meters
  • Clear skies
Temperatures Readings
Current 29°C / 84°F
Dewpoint 20°C / 68°F
Humidity 58%
Altimeter 30.15" Hg
Pressure 1021 hPa
Elevation 1332
METAR HESC 251700Z 26008KT CAVOK 29/20 Q1021 NOSIG
Observed Flight Rules
Sep-25 @ 17:00 UTC
(3 hours ago)
VFR
Wind Visibility
260° at 8 knots 10,000+ meters
Clouds
  • Clear skies
Temperature Dewpoint
29°C / 84°F 20°C / 68°F
Humidity Altimeter Pressure
58% 30.15" Hg 1021 hPa